Time;durP1;ratioP1;P1;durP2;ratioP2;P2;SDS_P1;SDS_P2;PMS_P1;PMS_P2;Temp;Humidity;BMP_temperature;BMP_pressure;BME280_temperature;BME280_humidity;BME280_pressure;Samples;Min_cycle;Max_cycle;Signal;HPM_P1;HPM_P2
2023/10/04 00:01:29;;;;;;;1.00;0.60;;;12.60;99.90;;;;;;5075329;28;20437;-86
2023/10/04 00:03:56;;;;;;;1.97;0.73;;;12.30;99.90;;;;;;5074885;28;21008;-86
2023/10/04 00:06:23;;;;;;;2.30;0.47;;;12.40;99.90;;;;;;5075411;28;20447;-87
2023/10/04 00:08:49;;;;;;;1.13;0.83;;;12.30;99.90;;;;;;5074978;28;20445;-86
2023/10/04 00:11:16;;;;;;;2.93;0.73;;;12.30;99.90;;;;;;5075137;28;20445;-86
2023/10/04 00:13:46;;;;;;;7.10;0.60;;;12.30;99.90;;;;;;5074908;28;20856;-86
2023/10/04 00:16:13;;;;;;;0.57;0.50;;;12.40;99.90;;;;;;5075267;28;20481;-86
2023/10/04 00:18:41;;;;;;;1.53;0.70;;;12.40;99.90;;;;;;5074738;28;20437;-86
2023/10/04 00:21:10;;;;;;;8.00;0.80;;;12.40;99.90;;;;;;5074580;28;20444;-86
2023/10/04 00:23:37;;;;;;;1.13;0.60;;;12.40;99.90;;;;;;5074569;28;20988;-86
2023/10/04 00:26:07;;;;;;;0.87;0.70;;;12.40;99.90;;;;;;5074930;28;20437;-86
2023/10/04 00:28:33;;;;;;;0.87;0.60;;;12.40;99.90;;;;;;5074829;28;20455;-87
2023/10/04 00:31:00;;;;;;;0.70;0.50;;;12.30;99.90;;;;;;5074962;28;20460;-86
2023/10/04 00:33:28;;;;;;;0.50;0.40;;;12.30;99.90;;;;;;5074678;28;20831;-86
2023/10/04 00:35:57;;;;;;;0.40;0.30;;;12.20;99.90;;;;;;5074360;28;20510;-87
2023/10/04 00:38:24;;;;;;;1.47;0.67;;;12.20;99.90;;;;;;5074704;28;20452;-86
2023/10/04 00:40:51;;;;;;;7.70;0.80;;;12.20;99.90;;;;;;5073147;28;20445;-87
2023/10/04 00:43:19;;;;;;;0.87;0.60;;;12.20;99.90;;;;;;5072908;28;20472;-86
2023/10/04 00:45:47;;;;;;;1.90;0.50;;;12.10;99.90;;;;;;5074134;28;20437;-86
2023/10/04 00:48:18;;;;;;;1.40;0.60;;;12.10;99.90;;;;;;5074473;28;20498;-86
2023/10/04 00:50:47;;;;;;;0.73;0.53;;;12.00;99.90;;;;;;5074390;28;20527;-87
2023/10/04 00:53:16;;;;;;;0.87;0.43;;;12.00;99.90;;;;;;5074412;28;20892;-86
2023/10/04 00:55:44;;;;;;;1.00;0.63;;;12.00;99.90;;;;;;5073930;28;21008;-86
2023/10/04 00:58:13;;;;;;;2.33;0.60;;;12.00;99.90;;;;;;5074291;28;20433;-86
2023/10/04 01:00:40;;;;;;;0.60;0.57;;;12.00;99.90;;;;;;5073950;28;20619;-87
2023/10/04 01:03:09;;;;;;;1.63;0.60;;;12.10;99.90;;;;;;5074335;28;20476;-87
2023/10/04 01:05:40;;;;;;;0.40;0.33;;;12.10;99.90;;;;;;5074214;28;20450;-86
2023/10/04 01:08:09;;;;;;;1.07;0.43;;;12.00;99.90;;;;;;5074216;28;20520;-86
2023/10/04 01:10:38;;;;;;;0.73;0.50;;;12.00;99.90;;;;;;5074271;28;20453;-87
2023/10/04 01:13:06;;;;;;;0.60;0.50;;;12.10;99.90;;;;;;5074065;28;20461;-86
2023/10/04 01:15:35;;;;;;;0.93;0.53;;;12.00;99.90;;;;;;5073898;28;20558;-87
2023/10/04 01:18:04;;;;;;;1.33;0.83;;;12.00;99.90;;;;;;5073844;28;20899;-86
2023/10/04 01:20:31;;;;;;;0.70;0.70;;;12.00;99.90;;;;;;5073901;28;20448;-86
2023/10/04 01:23:04;;;;;;;0.40;0.40;;;12.00;99.90;;;;;;5073915;28;20471;-86
2023/10/04 01:25:32;;;;;;;1.03;0.50;;;12.00;99.90;;;;;;5073821;28;20508;-87
2023/10/04 01:28:00;;;;;;;2.10;0.70;;;11.90;99.90;;;;;;5073799;28;20453;-86
2023/10/04 01:30:27;;;;;;;1.53;0.60;;;11.90;99.90;;;;;;5073730;28;20449;-86
2023/10/04 01:32:54;;;;;;;0.70;0.40;;;11.80;99.90;;;;;;5073951;28;20496;-86
2023/10/04 01:35:24;;;;;;;0.77;0.50;;;11.90;99.90;;;;;;5073598;28;21063;-87
2023/10/04 01:37:51;;;;;;;1.03;0.57;;;11.90;99.90;;;;;;5073650;28;20441;-86
2023/10/04 01:40:22;;;;;;;1.03;0.60;;;11.90;99.90;;;;;;5074176;28;20477;-86
2023/10/04 01:42:49;;;;;;;0.77;0.40;;;12.00;99.90;;;;;;5073203;28;20481;-86
2023/10/04 01:45:18;;;;;;;0.60;0.50;;;11.90;99.90;;;;;;5073261;28;20452;-86
2023/10/04 01:47:46;;;;;;;1.70;0.80;;;12.40;99.90;;;;;;5073604;28;20449;-86
2023/10/04 01:50:13;;;;;;;0.60;0.50;;;11.90;99.90;;;;;;5073157;28;20452;-87
2023/10/04 01:52:40;;;;;;;2.20;0.60;;;11.90;99.90;;;;;;5073529;28;20890;-86
2023/10/04 01:55:10;;;;;;;0.50;0.50;;;11.90;99.90;;;;;;5073290;28;20480;-86
2023/10/04 01:57:40;;;;;;;1.63;0.60;;;11.90;99.90;;;;;;5073585;28;20511;-87
2023/10/04 02:00:09;;;;;;;1.20;0.60;;;11.90;99.90;;;;;;5073509;28;20478;-87
2023/10/04 02:02:39;;;;;;;0.40;0.40;;;12.00;99.90;;;;;;5073254;28;20993;-86
2023/10/04 02:05:09;;;;;;;1.87;0.60;;;12.10;99.90;;;;;;5073451;28;20441;-87
2023/10/04 02:07:38;;;;;;;0.60;0.53;;;12.00;99.90;;;;;;5073538;28;20433;-86
2023/10/04 02:10:12;;;;;;;1.10;0.77;;;12.10;99.90;;;;;;5073397;28;20930;-87
2023/10/04 02:12:40;;;;;;;0.40;0.40;;;12.10;99.90;;;;;;5073120;28;20552;-87
2023/10/04 02:15:14;;;;;;;0.63;0.43;;;12.20;99.90;;;;;;5072964;28;21135;-86
2023/10/04 02:17:42;;;;;;;0.30;0.30;;;12.20;99.90;;;;;;5073374;28;20508;-87
2023/10/04 02:20:13;;;;;;;0.77;0.67;;;13.20;99.90;;;;;;5073305;28;20453;-86
2023/10/04 02:22:40;;;;;;;0.60;0.60;;;12.20;99.90;;;;;;5073298;28;20522;-87
2023/10/04 02:25:08;;;;;;;1.10;1.00;;;12.10;99.90;;;;;;5073242;28;20463;-87
2023/10/04 02:27:35;;;;;;;2.03;0.63;;;12.10;99.90;;;;;;5073123;28;20452;-87
2023/10/04 02:30:13;;;;;;;1.23;0.50;;;12.10;99.90;;;;;;5073295;28;20459;-87
2023/10/04 02:32:41;;;;;;;0.70;0.70;;;12.10;99.90;;;;;;5073173;28;20464;-86
2023/10/04 02:35:09;;;;;;;0.60;0.60;;;12.10;99.90;;;;;;5073169;28;20481;-87
2023/10/04 02:37:35;;;;;;;0.60;0.60;;;12.10;99.90;;;;;;5073134;28;20453;-86
2023/10/04 02:40:14;;;;;;;1.23;1.03;;;12.10;99.90;;;;;;5073234;28;20459;-86
2023/10/04 02:42:42;;;;;;;0.50;0.43;;;12.10;99.90;;;;;;5072542;28;20566;-87
2023/10/04 02:45:18;;;;;;;3.20;0.80;;;12.10;99.90;;;;;;5073123;28;20501;-86
2023/10/04 02:47:45;;;;;;;5.63;0.93;;;12.10;99.90;;;;;;5073121;28;20441;-87
2023/10/04 02:50:12;;;;;;;0.47;0.40;;;12.10;99.90;;;;;;5073047;28;20449;-87
2023/10/04 02:52:39;;;;;;;0.50;0.50;;;12.10;99.90;;;;;;5072985;28;20475;-87
2023/10/04 02:55:07;;;;;;;0.50;0.40;;;12.10;99.90;;;;;;5073184;28;20575;-86
2023/10/04 02:57:34;;;;;;;1.37;1.37;;;12.10;99.90;;;;;;5073062;28;20807;-86
2023/10/04 03:00:10;;;;;;;15.40;1.40;;;12.10;99.90;;;;;;5072938;28;20532;-87
2023/10/04 03:02:39;;;;;;;0.57;0.50;;;12.00;99.90;;;;;;5074379;28;20460;-87
2023/10/04 03:05:11;;;;;;;1.57;0.67;;;11.90;99.90;;;;;;5076567;28;20487;-86
2023/10/04 03:07:38;;;;;;;1.00;0.60;;;12.00;99.90;;;;;;5076546;28;20435;-86
2023/10/04 03:10:08;;;;;;;0.60;0.60;;;11.90;99.90;;;;;;5076342;28;20441;-86
2023/10/04 03:12:34;;;;;;;1.80;0.60;;;12.00;99.90;;;;;;5076290;28;20468;-87
2023/10/04 03:15:01;;;;;;;0.60;0.40;;;12.00;99.90;;;;;;5076284;28;20543;-86
2023/10/04 03:17:28;;;;;;;1.10;0.67;;;12.00;99.90;;;;;;5076510;28;20448;-87
2023/10/04 03:19:56;;;;;;;1.07;0.53;;;12.10;99.90;;;;;;5076276;28;20441;-86
2023/10/04 03:22:23;;;;;;;0.87;0.40;;;12.00;99.90;;;;;;5076156;28;20473;-87
2023/10/04 03:24:50;;;;;;;1.20;0.60;;;12.00;99.90;;;;;;5076736;28;20436;-87
2023/10/04 03:27:21;;;;;;;0.83;0.50;;;11.90;99.90;;;;;;5075828;28;20950;-87
2023/10/04 03:29:53;;;;;;;1.00;0.87;;;11.90;99.90;;;;;;5075927;28;20436;-86
2023/10/04 03:32:20;;;;;;;1.07;0.60;;;11.80;99.90;;;;;;5076305;28;20535;-87
2023/10/04 03:34:47;;;;;;;0.60;0.60;;;11.80;99.90;;;;;;5075961;28;20449;-86
2023/10/04 03:37:22;;;;;;;0.83;0.83;;;11.80;99.90;;;;;;5075739;28;20575;-86
2023/10/04 03:39:54;;;;;;;1.67;0.50;;;11.70;99.90;;;;;;5075973;28;20870;-86
2023/10/04 03:42:23;;;;;;;4.43;0.60;;;11.80;99.90;;;;;;5075580;28;20531;-86
2023/10/04 03:44:50;;;;;;;0.70;0.70;;;11.80;99.90;;;;;;5086105;28;20459;-86
2023/10/04 03:47:18;;;;;;;0.40;0.40;;;12.10;99.90;;;;;;5075771;28;20444;-86
2023/10/04 03:49:46;;;;;;;0.70;0.60;;;11.60;99.90;;;;;;5075514;28;20812;-86
2023/10/04 03:52:12;;;;;;;1.13;0.60;;;11.50;99.90;;;;;;5075485;28;20504;-86
2023/10/04 03:54:40;;;;;;;1.03;0.40;;;11.40;99.90;;;;;;5075637;28;20441;-86
2023/10/04 03:57:08;;;;;;;0.80;0.70;;;11.40;99.90;;;;;;5075407;28;20476;-86
2023/10/04 03:59:34;;;;;;;1.67;0.60;;;11.50;99.90;;;;;;5075355;28;20811;-87
2023/10/04 04:02:04;;;;;;;1.33;0.53;;;11.40;99.90;;;;;;5075090;28;20472;-86
2023/10/04 04:04:33;;;;;;;1.60;1.07;;;11.60;99.90;;;;;;5075558;28;20445;-86
2023/10/04 04:07:00;;;;;;;1.70;0.53;;;11.40;99.90;;;;;;5075562;28;20437;-86
2023/10/04 04:09:27;;;;;;;3.73;1.63;;;11.40;99.90;;;;;;5075388;28;20445;-86
2023/10/04 04:11:56;;;;;;;1.03;0.70;;;11.40;99.90;;;;;;5075267;28;20449;-86
2023/10/04 04:14:23;;;;;;;0.60;0.60;;;11.40;99.90;;;;;;5074471;28;20969;-86
2023/10/04 04:16:51;;;;;;;0.80;0.80;;;11.30;99.90;;;;;;5075819;28;20491;-87
2023/10/04 04:19:19;;;;;;;0.53;0.50;;;11.30;99.90;;;;;;5075104;28;20496;-86
2023/10/04 04:21:46;;;;;;;1.27;0.80;;;11.30;99.90;;;;;;5075093;28;20440;-87
2023/10/04 04:24:13;;;;;;;1.07;0.83;;;11.30;99.90;;;;;;5074934;28;20449;-86
2023/10/04 04:26:41;;;;;;;1.50;0.70;;;11.30;99.90;;;;;;5075046;28;20819;-86
2023/10/04 04:29:11;;;;;;;1.40;0.70;;;11.30;99.90;;;;;;5074612;28;20445;-86
2023/10/04 04:31:40;;;;;;;0.57;0.50;;;11.20;99.90;;;;;;5074389;28;20429;-86
2023/10/04 04:34:10;;;;;;;0.57;0.40;;;11.50;99.90;;;;;;5075311;28;20449;-86
2023/10/04 04:36:39;;;;;;;1.63;0.73;;;11.60;99.90;;;;;;5074799;28;20477;-86
2023/10/04 04:39:06;;;;;;;1.50;0.63;;;11.30;99.90;;;;;;5074580;28;20507;-86
2023/10/04 04:41:35;;;;;;;2.87;0.77;;;11.20;99.90;;;;;;5074511;28;20538;-86
2023/10/04 04:44:07;;;;;;;0.47;0.47;;;11.20;99.90;;;;;;5074567;28;20982;-86
2023/10/04 04:46:35;;;;;;;1.43;0.53;;;11.20;99.90;;;;;;5074303;28;20422;-86
2023/10/04 04:49:02;;;;;;;2.63;1.23;;;11.10;99.90;;;;;;5074360;28;20433;-86
2023/10/04 04:51:31;;;;;;;0.60;0.60;;;11.10;99.90;;;;;;5074018;28;20502;-86
2023/10/04 04:53:58;;;;;;;0.87;0.60;;;11.10;99.90;;;;;;5074023;28;21058;-87
2023/10/04 04:56:25;;;;;;;1.90;1.13;;;11.00;99.90;;;;;;5074180;28;20476;-86
2023/10/04 04:58:55;;;;;;;2.13;1.03;;;11.00;99.90;;;;;;5074264;28;21048;-86
2023/10/04 05:01:23;;;;;;;0.50;0.43;;;11.00;99.90;;;;;;5074702;28;20439;-86
2023/10/04 05:03:51;;;;;;;1.73;0.60;;;10.90;99.90;;;;;;5074163;28;20480;-87
2023/10/04 05:06:22;;;;;;;0.50;0.50;;;10.90;99.90;;;;;;5074107;28;20443;-87
2023/10/04 05:08:49;;;;;;;2.53;0.93;;;10.90;99.90;;;;;;5074765;28;20453;-86
2023/10/04 05:11:17;;;;;;;1.23;0.70;;;10.80;99.90;;;;;;5073980;28;20444;-86
2023/10/04 05:13:45;;;;;;;0.60;0.57;;;11.30;99.90;;;;;;5074007;28;20468;-86
2023/10/04 05:16:11;;;;;;;1.37;0.40;;;10.80;99.90;;;;;;5073756;28;20473;-87
2023/10/04 05:18:38;;;;;;;0.80;0.80;;;10.80;99.90;;;;;;5073933;28;20452;-86
2023/10/04 05:21:10;;;;;;;2.07;0.77;;;10.80;99.90;;;;;;5073960;28;20447;-86
2023/10/04 05:23:37;;;;;;;0.50;0.50;;;10.80;99.90;;;;;;5073848;28;20472;-86
2023/10/04 05:26:04;;;;;;;1.23;0.90;;;10.80;99.90;;;;;;5072852;28;20437;-86
2023/10/04 05:28:34;;;;;;;0.70;0.50;;;10.80;99.90;;;;;;5073474;28;20934;-86
2023/10/04 05:31:02;;;;;;;1.37;0.50;;;10.70;99.90;;;;;;5073463;28;20436;-87
2023/10/04 05:33:30;;;;;;;0.97;0.50;;;10.70;99.90;;;;;;5073362;28;20555;-86
2023/10/04 05:36:00;;;;;;;0.70;0.70;;;10.70;99.90;;;;;;5073698;28;20481;-87
2023/10/04 05:38:28;;;;;;;0.83;0.60;;;10.70;99.90;;;;;;5073424;28;20969;-86
2023/10/04 05:40:55;;;;;;;1.80;0.60;;;10.70;99.90;;;;;;5073274;28;21043;-87
2023/10/04 05:43:22;;;;;;;0.50;0.50;;;10.70;99.90;;;;;;5073474;28;20479;-86
2023/10/04 05:45:50;;;;;;;0.53;0.50;;;10.70;99.90;;;;;;5073749;28;20992;-86
2023/10/04 05:48:19;;;;;;;0.60;0.60;;;10.70;99.90;;;;;;5073705;28;20459;-87
2023/10/04 05:50:49;;;;;;;0.87;0.50;;;10.70;99.90;;;;;;5073992;28;20472;-86
2023/10/04 05:53:19;;;;;;;2.10;0.90;;;10.80;99.90;;;;;;5073802;28;20465;-86
2023/10/04 05:55:48;;;;;;;0.60;0.53;;;10.80;99.90;;;;;;5073263;28;20902;-87
2023/10/04 05:58:16;;;;;;;1.60;0.47;;;10.80;99.90;;;;;;5073555;28;20980;-87
2023/10/04 06:00:46;;;;;;;0.60;0.43;;;10.90;99.90;;;;;;5073321;28;20441;-87
2023/10/04 06:03:15;;;;;;;0.97;0.70;;;10.90;99.90;;;;;;5073421;28;20469;-87
2023/10/04 06:05:43;;;;;;;2.20;0.47;;;10.90;99.90;;;;;;5073548;28;20457;-87
2023/10/04 06:08:15;;;;;;;0.47;0.47;;;11.00;99.90;;;;;;5073484;28;20441;-87
2023/10/04 06:10:42;;;;;;;1.53;0.60;;;11.10;99.90;;;;;;5073607;28;20483;-87
2023/10/04 06:13:11;;;;;;;0.50;0.40;;;11.20;99.90;;;;;;5073504;28;20804;-87
2023/10/04 06:15:40;;;;;;;0.70;0.70;;;11.20;99.90;;;;;;5073525;28;20444;-87
2023/10/04 06:18:07;;;;;;;1.07;0.50;;;11.20;99.90;;;;;;5073192;28;20487;-87
2023/10/04 06:20:36;;;;;;;0.70;0.70;;;11.20;99.90;;;;;;5073437;28;20540;-87
2023/10/04 06:23:05;;;;;;;1.00;0.90;;;11.20;99.90;;;;;;5073355;28;20470;-87
2023/10/04 06:25:34;;;;;;;4.63;0.80;;;11.20;99.90;;;;;;5073461;28;20488;-87
2023/10/04 06:28:03;;;;;;;1.00;0.80;;;11.20;99.90;;;;;;5073407;28;20452;-87
2023/10/04 06:30:33;;;;;;;0.47;0.47;;;11.20;99.90;;;;;;5073052;28;20436;-86
2023/10/04 06:33:02;;;;;;;1.13;1.03;;;11.20;99.90;;;;;;5073236;28;20468;-87
2023/10/04 06:35:29;;;;;;;3.63;0.80;;;11.20;99.90;;;;;;5072919;28;20930;-87
2023/10/04 06:37:58;;;;;;;0.80;0.60;;;11.30;99.90;;;;;;5076795;28;20481;-87
2023/10/04 06:40:26;;;;;;;0.67;0.60;;;11.30;99.90;;;;;;5077075;28;20455;-87
2023/10/04 06:42:55;;;;;;;2.33;0.70;;;11.40;99.90;;;;;;5076850;28;20576;-87
2023/10/04 06:45:24;;;;;;;1.17;0.60;;;11.40;99.90;;;;;;5077141;28;20433;-87
2023/10/04 06:47:55;;;;;;;0.80;0.67;;;11.50;99.90;;;;;;5076816;28;20444;-87
2023/10/04 06:50:23;;;;;;;3.00;1.63;;;11.40;99.90;;;;;;5076690;28;20484;-87
2023/10/04 06:52:51;;;;;;;0.60;0.50;;;11.50;99.90;;;;;;5077006;28;20464;-87
2023/10/04 06:55:20;;;;;;;0.53;0.50;;;11.50;99.90;;;;;;5076935;28;20451;-87
2023/10/04 06:57:48;;;;;;;0.50;0.40;;;11.60;99.90;;;;;;5076440;28;21050;-88
2023/10/04 07:00:18;;;;;;;2.50;0.90;;;11.80;99.90;;;;;;5076506;28;20995;-88
2023/10/04 07:02:46;;;;;;;1.80;1.13;;;11.70;99.90;;;;;;5076745;28;21008;-88
2023/10/04 07:05:19;;;;;;;1.10;0.47;;;11.80;99.90;;;;;;5076751;28;20443;-88
2023/10/04 07:07:47;;;;;;;0.40;0.40;;;11.80;99.90;;;;;;5077036;28;20425;-87
2023/10/04 07:10:15;;;;;;;0.57;0.47;;;12.10;99.90;;;;;;5076353;28;20440;-88
2023/10/04 07:12:43;;;;;;;1.63;0.40;;;11.90;99.90;;;;;;5076713;28;20476;-87
2023/10/04 07:15:11;;;;;;;5.13;1.57;;;11.90;99.90;;;;;;5077426;28;20457;-88
2023/10/04 07:17:39;;;;;;;0.80;0.40;;;12.00;99.90;;;;;;5077062;28;20485;-88
2023/10/04 07:20:08;;;;;;;5.67;0.97;;;12.30;99.90;;;;;;5076612;28;21003;-88
2023/10/04 07:22:37;;;;;;;2.40;0.67;;;12.10;99.90;;;;;;5077044;28;20465;-88
2023/10/04 07:25:07;;;;;;;0.70;0.50;;;12.20;99.90;;;;;;5076305;28;20459;-88
2023/10/04 07:27:33;;;;;;;0.90;0.60;;;12.20;99.90;;;;;;5077106;28;20532;-88
2023/10/04 07:30:01;;;;;;;1.90;0.60;;;12.20;99.90;;;;;;5076798;28;20436;-88
2023/10/04 07:32:29;;;;;;;0.97;0.67;;;12.30;99.90;;;;;;5076851;28;20464;-88
2023/10/04 07:34:56;;;;;;;0.93;0.60;;;12.30;99.90;;;;;;5076543;28;20453;-89
2023/10/04 07:37:23;;;;;;;1.17;0.60;;;12.40;99.90;;;;;;5076401;28;20481;-89
2023/10/04 07:39:52;;;;;;;0.83;0.70;;;12.40;99.90;;;;;;5076606;28;20433;-88
2023/10/04 07:42:21;;;;;;;0.40;0.40;;;12.40;99.90;;;;;;5076380;28;20889;-89
2023/10/04 07:44:48;;;;;;;3.33;0.80;;;12.50;99.90;;;;;;5076278;28;20463;-89
2023/10/04 07:47:14;;;;;;;0.63;0.63;;;12.50;99.90;;;;;;5076319;28;20445;-90
2023/10/04 07:49:41;;;;;;;1.63;0.77;;;13.10;99.90;;;;;;5075811;28;20448;-89
2023/10/04 07:52:08;;;;;;;0.90;0.60;;;12.70;99.90;;;;;;5076316;28;20467;-88
2023/10/04 07:54:35;;;;;;;0.50;0.50;;;12.80;99.90;;;;;;5076429;28;20453;-89
2023/10/04 07:57:07;;;;;;;1.37;0.80;;;12.80;99.90;;;;;;5076047;28;20475;-90
2023/10/04 07:59:34;;;;;;;0.97;0.90;;;12.90;99.90;;;;;;5076023;28;20441;-88
2023/10/04 08:02:00;;;;;;;4.63;0.50;;;13.10;99.90;;;;;;5075711;28;20455;-88
2023/10/04 08:04:28;;;;;;;0.80;0.50;;;13.20;99.90;;;;;;5076066;28;20535;-88
2023/10/04 08:06:55;;;;;;;2.47;0.90;;;13.30;99.90;;;;;;5075958;28;20503;-88
2023/10/04 08:09:22;;;;;;;0.70;0.70;;;13.40;99.90;;;;;;5075797;28;20494;-88
2023/10/04 08:11:52;;;;;;;0.47;0.47;;;13.60;99.90;;;;;;5075403;28;20902;-88
2023/10/04 08:14:22;;;;;;;2.60;0.60;;;13.70;99.90;;;;;;5075594;28;21005;-88
2023/10/04 08:16:50;;;;;;;0.40;0.40;;;13.80;99.90;;;;;;5075548;28;20827;-88
2023/10/04 08:19:17;;;;;;;1.77;0.77;;;14.00;99.90;;;;;;5075658;28;20449;-89
2023/10/04 08:21:44;;;;;;;2.87;0.60;;;14.20;99.90;;;;;;5075326;28;20527;-88
2023/10/04 08:24:11;;;;;;;7.70;1.13;;;14.70;99.90;;;;;;5081924;28;20547;-88
2023/10/04 08:26:38;;;;;;;1.60;0.67;;;14.60;99.90;;;;;;5075510;28;20531;-88
2023/10/04 08:29:05;;;;;;;0.50;0.50;;;14.50;99.90;;;;;;5075369;28;20807;-88
2023/10/04 08:31:34;;;;;;;2.77;0.50;;;14.50;99.90;;;;;;5075282;28;20937;-88
2023/10/04 08:34:00;;;;;;;3.50;0.60;;;14.60;99.90;;;;;;5075326;28;20518;-88
2023/10/04 08:36:27;;;;;;;0.80;0.70;;;14.70;99.90;;;;;;5075176;28;20965;-88
2023/10/04 08:38:54;;;;;;;1.03;1.03;;;14.80;99.90;;;;;;5075196;28;20485;-88
2023/10/04 08:41:21;;;;;;;5.50;0.60;;;15.00;99.90;;;;;;5074834;28;21028;-88
2023/10/04 08:43:47;;;;;;;0.50;0.50;;;15.10;99.90;;;;;;5075112;28;20567;-88
2023/10/04 08:46:18;;;;;;;1.10;0.50;;;15.50;99.90;;;;;;5075079;28;20468;-88
2023/10/04 08:48:53;;;;;;;0.70;0.50;;;15.40;99.90;;;;;;5074782;28;20429;-88
2023/10/04 08:51:29;;;;;;;5.40;0.90;;;15.60;99.90;;;;;;5075535;28;20433;-87
2023/10/04 08:54:08;;;;;;;0.60;0.40;;;15.90;99.90;;;;;;5074611;28;20471;-88
2023/10/04 08:56:42;;;;;;;1.13;0.80;;;16.30;99.90;;;;;;5075191;28;20451;-88
2023/10/04 08:59:10;;;;;;;0.50;0.50;;;16.70;99.90;;;;;;5074039;28;20911;-88
2023/10/04 09:01:39;;;;;;;2.00;0.70;;;17.30;99.90;;;;;;5074662;28;20453;-87
2023/10/04 09:04:08;;;;;;;1.10;0.70;;;18.00;99.90;;;;;;5074926;28;20445;-88
2023/10/04 09:06:35;;;;;;;1.23;0.50;;;18.60;99.90;;;;;;5074758;28;20451;-89
2023/10/04 09:09:05;;;;;;;0.40;0.40;;;19.10;99.90;;;;;;5074644;28;20441;-88
2023/10/04 09:11:32;;;;;;;1.57;0.60;;;19.40;99.90;;;;;;5074816;28;20428;-88
2023/10/04 09:13:59;;;;;;;0.50;0.50;;;19.90;99.90;;;;;;5074611;28;20460;-88
2023/10/04 09:16:28;;;;;;;2.00;0.80;;;20.80;99.90;;;;;;5074764;28;20452;-88
2023/10/04 09:19:08;;;;;;;0.70;0.40;;;21.80;99.90;;;;;;5074581;28;20484;-87
2023/10/04 09:21:36;;;;;;;1.23;0.50;;;22.60;99.90;;;;;;5074669;28;20428;-89
2023/10/04 09:24:09;;;;;;;1.07;0.77;;;23.00;99.90;;;;;;5074388;28;21024;-89
2023/10/04 09:26:37;;;;;;;6.73;0.50;;;23.80;99.90;;;;;;5074323;28;20472;-89
2023/10/04 09:29:05;;;;;;;4.23;0.67;;;24.00;99.90;;;;;;5075015;28;20494;-89
2023/10/04 09:31:31;;;;;;;1.63;0.60;;;23.50;99.90;;;;;;5075028;28;20933;-89
2023/10/04 09:34:15;;;;;;;0.60;0.50;;;23.40;99.90;;;;;;5074864;28;20477;-88
2023/10/04 09:36:42;;;;;;;1.90;0.73;;;23.10;99.90;;;;;;5074591;28;20435;-88
2023/10/04 09:39:13;;;;;;;6.10;0.53;;;23.30;99.90;;;;;;5073456;28;20545;-86
2023/10/04 09:41:42;;;;;;;1.10;0.70;;;23.20;99.90;;;;;;5073829;28;20480;-87
2023/10/04 09:44:24;;;;;;;1.97;0.47;;;23.00;99.90;;;;;;5074069;28;20517;-87
2023/10/04 09:46:56;;;;;;;0.87;0.70;;;22.70;99.90;;;;;;5073944;28;20429;-87
2023/10/04 09:49:26;;;;;;;0.40;0.40;;;22.40;99.90;;;;;;5074144;28;20428;-88
2023/10/04 09:51:56;;;;;;;1.27;0.47;;;21.80;99.90;;;;;;5073570;28;20478;-87
2023/10/04 09:54:24;;;;;;;2.43;0.80;;;21.60;99.90;;;;;;5073657;28;20807;-86
2023/10/04 09:56:53;;;;;;;2.57;0.57;;;21.00;99.90;;;;;;5074087;28;20438;-87
2023/10/04 09:59:21;;;;;;;1.67;0.60;;;20.70;99.90;;;;;;5073317;28;20574;-87
2023/10/04 10:01:53;;;;;;;0.60;0.60;;;20.20;99.90;;;;;;5073748;28;20444;-87
2023/10/04 10:04:26;;;;;;;0.90;0.50;;;19.70;99.90;;;;;;5073743;28;20487;-87
2023/10/04 10:07:16;;;;;;;2.30;0.57;;;19.30;99.90;;;;;;5073816;28;20435;-87
2023/10/04 10:09:51;;;;;;;0.70;0.50;;;19.00;99.90;;;;;;5073627;28;20476;-87
2023/10/04 10:12:18;;;;;;;0.73;0.50;;;18.60;99.90;;;;;;5076336;28;20474;-87
2023/10/04 10:14:46;;;;;;;0.70;0.50;;;18.40;99.90;;;;;;5077832;28;20449;-87
2023/10/04 10:17:13;;;;;;;5.80;0.67;;;18.60;99.90;;;;;;5077291;28;20445;-87
2023/10/04 10:19:43;;;;;;;1.57;0.40;;;19.00;99.90;;;;;;5077487;28;20447;-88
2023/10/04 10:22:15;;;;;;;0.40;0.40;;;19.50;99.90;;;;;;5077499;28;20460;-87
2023/10/04 10:24:45;;;;;;;1.67;0.67;;;20.10;99.90;;;;;;5077483;28;20437;-87
2023/10/04 10:27:16;;;;;;;0.40;0.40;;;20.70;99.90;;;;;;5077471;28;20487;-86
2023/10/04 10:29:43;;;;;;;1.90;0.50;;;21.20;99.90;;;;;;5077399;28;20795;-86
2023/10/04 10:32:20;;;;;;;1.37;0.60;;;21.50;99.90;;;;;;5077322;28;20600;-87
2023/10/04 10:34:49;;;;;;;0.50;0.50;;;22.20;99.90;;;;;;5077434;28;20810;-87
2023/10/04 10:37:22;;;;;;;0.73;0.50;;;23.40;99.90;;;;;;5077237;28;20205;-87
2023/10/04 10:39:50;;;;;;;1.15;0.60;;;24.90;99.90;;;;;;5076805;28;20232;-87
2023/10/04 10:42:18;;;;;;;1.17;0.52;;;26.30;97.60;;;;;;5076582;28;20241;-87
2023/10/04 10:44:45;;;;;;;0.47;0.47;;;27.40;94.80;;;;;;5077064;28;20301;-87
2023/10/04 10:47:22;;;;;;;0.50;0.50;;;28.10;93.40;;;;;;5076690;28;20667;-88
2023/10/04 10:49:55;;;;;;;0.77;0.47;;;28.10;91.10;;;;;;5076638;28;20227;-87
2023/10/04 10:52:34;;;;;;;0.43;0.43;;;27.50;88.90;;;;;;5076793;28;20267;-87
2023/10/04 10:55:04;;;;;;;0.60;0.52;;;26.30;91.60;;;;;;5076681;28;20186;-87
2023/10/04 10:57:31;;;;;;;0.50;0.40;;;25.20;92.20;;;;;;5076618;28;20202;-87
2023/10/04 11:00:03;;;;;;;1.25;0.50;;;24.20;92.60;;;;;;5076521;28;20283;-87
2023/10/04 11:02:29;;;;;;;0.60;0.40;;;23.20;93.90;;;;;;5076876;28;20221;-87
2023/10/04 11:04:58;;;;;;;2.97;0.50;;;22.60;95.60;;;;;;5076992;28;20209;-86
2023/10/04 11:07:26;;;;;;;1.13;0.47;;;21.90;97.00;;;;;;5076741;28;20205;-86
2023/10/04 11:09:54;;;;;;;0.60;0.60;;;21.30;96.90;;;;;;5076489;28;20201;-86
2023/10/04 11:12:22;;;;;;;1.00;0.70;;;20.80;97.60;;;;;;5076273;28;20470;-86
2023/10/04 11:14:50;;;;;;;1.60;0.47;;;20.30;98.20;;;;;;5076442;28;20448;-86
2023/10/04 11:17:17;;;;;;;1.60;0.90;;;19.90;99.40;;;;;;5076107;28;20506;-86
2023/10/04 11:19:45;;;;;;;1.03;0.37;;;19.40;99.90;;;;;;5076240;28;20480;-85
2023/10/04 11:22:14;;;;;;;0.57;0.50;;;19.30;99.90;;;;;;5075516;28;20464;-86
2023/10/04 11:24:41;;;;;;;0.50;0.40;;;19.00;99.90;;;;;;5075971;28;20448;-86
2023/10/04 11:27:09;;;;;;;1.00;0.60;;;18.90;99.90;;;;;;5076314;28;20452;-85
2023/10/04 11:29:36;;;;;;;0.70;0.40;;;18.80;99.90;;;;;;5076302;28;20444;-85
2023/10/04 11:32:04;;;;;;;1.07;0.50;;;18.70;99.90;;;;;;5075824;28;20469;-86
2023/10/04 11:34:36;;;;;;;0.70;0.70;;;18.50;99.90;;;;;;5076739;28;20452;-87
2023/10/04 11:37:04;;;;;;;0.73;0.40;;;18.40;99.90;;;;;;5075884;28;20429;-86
2023/10/04 11:39:34;;;;;;;2.43;0.57;;;18.20;99.90;;;;;;5076299;28;20485;-86
2023/10/04 11:42:02;;;;;;;2.53;0.50;;;18.10;99.90;;;;;;5075702;28;20511;-86
2023/10/04 11:44:33;;;;;;;0.50;0.50;;;18.00;99.90;;;;;;5075955;28;20822;-86
2023/10/04 11:47:03;;;;;;;0.70;0.60;;;18.00;99.90;;;;;;5076023;28;20440;-86
2023/10/04 11:49:33;;;;;;;0.60;0.50;;;17.90;99.90;;;;;;5075909;28;20448;-86
2023/10/04 11:52:00;;;;;;;1.07;0.40;;;17.80;99.90;;;;;;5075942;28;20465;-86
2023/10/04 11:54:39;;;;;;;2.80;0.53;;;17.70;99.90;;;;;;5075832;28;20436;-87
2023/10/04 11:57:06;;;;;;;1.57;0.50;;;17.60;99.90;;;;;;5075810;28;20800;-87
2023/10/04 11:59:34;;;;;;;1.13;0.60;;;17.60;99.90;;;;;;5075667;28;20895;-86
2023/10/04 12:02:01;;;;;;;0.40;0.40;;;17.60;99.90;;;;;;5075593;28;20467;-86
2023/10/04 12:04:29;;;;;;;1.13;0.53;;;17.70;99.90;;;;;;5075680;28;20445;-85
2023/10/04 12:07:02;;;;;;;1.13;0.53;;;17.70;99.90;;;;;;5075133;28;20527;-86
2023/10/04 12:09:31;;;;;;;1.00;0.50;;;17.70;99.90;;;;;;5075511;28;20441;-86
2023/10/04 12:12:02;;;;;;;1.00;0.50;;;17.70;99.90;;;;;;5075687;28;20514;-86
2023/10/04 12:14:32;;;;;;;0.70;0.40;;;17.70;99.90;;;;;;5076028;28;20433;-87
2023/10/04 12:17:02;;;;;;;1.67;0.40;;;17.60;99.90;;;;;;5075445;28;20840;-87
2023/10/04 12:19:31;;;;;;;1.50;0.50;;;17.50;99.90;;;;;;5075105;28;20465;-86
2023/10/04 12:21:59;;;;;;;0.60;0.50;;;17.50;99.90;;;;;;5075080;28;20449;-85
2023/10/04 12:24:26;;;;;;;0.77;0.60;;;17.50;99.90;;;;;;5074705;28;20429;-83
2023/10/04 12:26:55;;;;;;;8.30;0.67;;;17.50;99.90;;;;;;5075047;28;20445;-85
2023/10/04 12:29:23;;;;;;;1.17;0.60;;;17.40;99.90;;;;;;5075005;28;20804;-85
2023/10/04 12:31:51;;;;;;;0.50;0.50;;;17.40;99.90;;;;;;5074449;28;20449;-84
2023/10/04 12:34:18;;;;;;;0.40;0.40;;;17.30;99.90;;;;;;5074436;28;20449;-84
2023/10/04 12:36:45;;;;;;;0.43;0.40;;;17.30;99.90;;;;;;5074277;28;20449;-84
2023/10/04 12:39:15;;;;;;;1.60;0.63;;;17.20;99.90;;;;;;5074846;28;21019;-83
2023/10/04 12:41:42;;;;;;;2.20;0.50;;;17.40;99.90;;;;;;5074237;28;20484;-84
2023/10/04 12:44:08;;;;;;;2.00;0.50;;;17.20;99.90;;;;;;5074475;28;20441;-83
2023/10/04 12:46:37;;;;;;;2.57;0.50;;;17.20;99.90;;;;;;5074151;28;20456;-84
2023/10/04 12:49:07;;;;;;;0.80;0.43;;;17.20;99.90;;;;;;5074336;28;20437;-83
2023/10/04 12:51:34;;;;;;;1.80;0.60;;;17.10;99.90;;;;;;5073934;28;20455;-83
2023/10/04 12:54:00;;;;;;;0.80;0.60;;;17.00;99.90;;;;;;5074195;28;20469;-84
2023/10/04 12:56:27;;;;;;;0.40;0.30;;;17.10;99.90;;;;;;5074181;28;20445;-83